Vue régionale

METAR et TAF

Jeudi 20 septembre 2018 à 09h46

Visibilités horizontales observées à différents aéroports. Les observations (METAR) et prévisions aéronautiques (TAF) complètes sont disponibles en cliquant sur l’icône correspondante.

  • Luxemburg (ELLX)

    Taf: TAF ELLX 200500Z 2006/2112 25005KT CAVOK BECMG 2106/2108 22013G23KT TEMPO 2109/2112 24018G35KT 5000 RA BKN015=

    Metar: METAR ELLX 200720Z 21005KT 170V260 CAVOK 16/13 Q1021 NOSIG=

  • Spangdahlem (ETAD)

    Taf: TAF ETAD 200306Z 2003/2109 21006KT 9999 FEW200 QNH3009INS BECMG 2009/2010 21012KT 9999 FEW050 FEW200 QNH2990INS BECMG 2023/2024 24006KT 9999 SCT050 BKN200 QNH2987INS BECMG 2108/2109 24010G15KT 9999 FEW015 BKN050 QNH2982INS TX23/2015Z TN12/2005Z=

    Metar: METAR ETAD NIL=

  • Metz/Nancy (LFJL)

    Taf: TAF LFJL 200500Z 2006/2106 17010KT CAVOK BECMG 2009/2012 23010KT BECMG 2017/2020 16010KT=

    Metar: METAR LFJL 200730Z AUTO 18004KT CAVOK 19/14 Q1021 NOSIG=

  • Saarbrücken/Intl (EDDR)

    Taf: TAF EDDR 200500Z 2006/2106 18003KT CAVOK BECMG 2007/2009 24008KT BECMG 2017/2019 19003KT BECMG 2101/2103 21008KT=

    Metar: METAR EDDR 200720Z 17003KT 110V190 CAVOK 18/14 Q1021 NOSIG=

  • Hahn (EDFH)

    Taf: TAF EDFH 200500Z 2006/2106 20004KT CAVOK BECMG 2007/2010 24009KT TEMPO 2103/2106 25015G25KT=

    Metar: METAR EDFH 200720Z 21008KT CAVOK 17/13 Q1020=

  • Ramstein (ETAR)

    Taf: TAF ETAR 200203Z 2002/2108 21006KT 9999 FEW200 QNH3009INS BECMG 2009/2010 21009KT 9999 FEW050 FEW200 QNH2992INS BECMG 2023/2024 24006KT 9999 SCT050 BKN200 QNH2987INS BECMG 2107/2108 27010G15KT 9999 FEW015 BKN050 QNH2985INS TX25/2015Z TN11/2005Z=

    Metar: nil

  • Nancy/Ochey (LFSO)

    Taf: TAF AMD LFSO 200450Z 2004/2103 20005KT CAVOK=

    Metar: METAR LFSO 200730Z AUTO 18003KT 140V210 CAVOK 19/14 Q1021 NOSIG=

  • Liège Bierset (EBLG)

    Taf: TAF EBLG 200520Z 2006/2112 20010KT 9999 FEW028 PROB30 TEMPO 2104/2110 22016G30KT PROB30 TEMPO 2106/2111 3400 RA SHRA BKN012 BECMG 2110/2112 26017G30KT=

    Metar: METAR EBLG 200720Z 20009KT 9999 SCT042 18/13 Q1018 NOSIG=

  • Saint-Dizier (LFSI)

    Taf: TAF LFSI 200200Z 2003/2103 18003KT CAVOK BECMG 2009/2011 24012KT=

    Metar: METAR LFSI 200730Z AUTO VRB03KT CAVOK 17/14 Q1021=

  • Maastricht/Zuid Limburg (EHBK)

    Taf: TAF EHBK 200457Z 2006/2112 21006KT CAVOK BECMG 2008/2010 22014G24KT BECMG 2015/2018 19010KT BECMG 2102/2105 20022G33KT TEMPO 2107/2110 23025G38KT 6000 RA SHRA SCT020CB BKN030 BECMG 2108/2111 24022G33KT SCT030=

    Metar: METAR EHBK 200725Z AUTO 20011KT 9999 OVC043 19/13 Q1018 NOSIG=

  • Köln/Köln-Bonn (EDDK)

    Taf: TAF EDDK 200500Z 2006/2112 VRB03KT CAVOK BECMG 2008/2011 21010KT BECMG 2017/2020 15007KT BECMG 2106/2108 24015G30KT TEMPO 2108/2111 28020G35KT RA=

    Metar: METAR EDDK 200720Z 15004KT 110V180 CAVOK 19/13 Q1019 NOSIG=

  • Charleroi (EBCI)

    Taf: TAF EBCI 200520Z 2006/2112 20009KT 9999 FEW028 PROB30 TEMPO 2102/2110 22016G30KT PROB30 TEMPO 2104/2110 3400 RA SHRA BKN012 BECMG 2110/2112 26016G30KT=

    Metar: METAR EBCI 200720Z 21011KT CAVOK 17/13 Q1018 NOSIG=

  • Wiesbaden (ETOU)

    Taf: TAF ETOU 200306Z 2003/2109 21006KT 9999 FEW200 QNH3006INS BECMG 2009/2010 21012KT 9999 FEW050 FEW200 QNH2989INS BECMG 2023/2024 24006KT 9999 SCT050 BKN200 QNH2983INS BECMG 2107/2108 27010G15KT 9999 FEW015 BKN050 QNH2979INS TX26/2015Z TN12/2005Z=

    Metar: METAR ETOU NIL=

  • Karlsruhe/Baden-Baden (EDSB)

    Taf: TAF EDSB 200500Z 2006/2106 24004KT CAVOK BECMG 2103/2106 21009KT=

    Metar: METAR EDSB 200720Z 21006KT CAVOK 19/14 Q1020=

  • Chalons/Vatry (LFOK)

    Taf: TAF LFOK 200500Z 2006/2106 20010KT CAVOK=

    Metar: METAR LFOK 200730Z AUTO 20009KT CAVOK 16/13 Q1020 NOSIG=

  • Brüssel (EBBR)

    Taf: TAF EBBR 200520Z 2006/2112 20009KT 9999 FEW035 PROB30 TEMPO 2102/2110 22016G30KT PROB30 TEMPO 2104/2110 3800 RA SHRA BKN014 BECMG 2110/2112 26016G30KT=

    Metar: METAR EBBR 200720Z 21008KT CAVOK 18/13 Q1017=

  • Düsseldorf (EDDL)

    Taf: TAF EDDL 200500Z 2006/2112 17006KT CAVOK BECMG 2006/2009 22013KT BECMG 2018/2021 16010KT BECMG 2100/2103 19015G25KT TEMPO 2107/2110 21020G40KT RA BECMG 2110/2112 25020G30KT=

    Metar: METAR EDDL 200720Z 16008KT CAVOK 19/13 Q1017 NOSIG=

  • Luxeuil (LFSX)

    Taf: TAF LFSX 200200Z 2003/2103 22010KT CAVOK TEMPO 2003/2009 09005KT=

    Metar: METAR LFSX 200730Z AUTO 11003KT 070V150 CAVOK 18/14 Q1021 BECMG 22010KT=

  • Eindhoven (EHEH)

    Taf: TAF EHEH 200506Z 2006/2112 18005KT CAVOK BECMG 2008/2010 22012G24KT SCT020 BECMG 2016/2018 18006KT BECMG 2023/2102 19010G20KT BECMG 2103/2106 20020G35KT TEMPO 2106/2108 23025G40KT 4000 SHRA RA SCT020CB BKN025 BECMG 2107/2109 25020G35KT=

    Metar: METAR EHEH 200725Z AUTO 20009KT 9999 OVC310 18/14 Q1016 BLU 21010KT CAVOK=

  • Niederrhein (EDLV)

    Taf: TAF EDLV 200500Z 2006/2106 19005KT CAVOK BECMG 2008/2011 22012KT BECMG 2016/2018 17005KT BECMG 2022/2101 18012KT TEMPO 2104/2106 21015G30KT=

    Metar: METAR EDLV 200720Z 19007KT CAVOK 18/14 Q1017=

  • Dortmund/Wickede (EDLW)

    Taf: TAF EDLW 200500Z 2006/2106 19008KT CAVOK BECMG 2008/2011 23013KT BECMG 2015/2018 19007KT BECMG 2021/2024 18012KT BECMG 2104/2106 20015G30KT=

    Metar: METAR EDLW 200720Z 20010KT CAVOK 19/13 Q1018=

  • Stuttgart/Echterdingen (EDDS)

    Taf: TAF EDDS 200500Z 2006/2106 25004KT CAVOK=

    Metar: METAR EDDS 200720Z VRB02KT CAVOK 18/15 Q1021 NOSIG=

  • Basel-Mühlhausen (LFSB)

    Taf: TAF AMD LFSB 200628Z 2006/2106 18004KT CAVOK=

    Metar: METAR LFSB 200730Z 15005KT CAVOK 20/15 Q1021 NOSIG=

  • Lille (LFQQ)

    Taf: TAF LFQQ 200500Z 2006/2112 17004KT CAVOK PROB30 TEMPO 2006/2009 BKN013 BECMG 2007/2009 19014KT BECMG 2022/2024 19020G30KT TEMPO 2104/2106 3000 RA OVC010 FM210600 27027G40KT 9999 BKN040=

    Metar: METAR LFQQ 200730Z AUTO 19010KT CAVOK 17/14 Q1017 TEMPO BKN013=

  • Paris/Charles de Gaulle (LFPG)

    Taf: TAF LFPG 200500Z 2006/2112 20005KT CAVOK TX26/2015Z TN15/2107Z PROB30 TEMPO 2006/2008 BKN006 BECMG 2102/2105 24015G30KT PROB40 TEMPO 2105/2107 4000 RA BECMG 2110/2112 17012KT=

    Metar: METAR LFPG 200730Z 20008KT 180V280 CAVOK 18/14 Q1019 NOSIG=

  • Paderborn/Lippstadt (EDLP)

    Taf: TAF EDLP 200500Z 2006/2106 20006KT CAVOK BECMG 2008/2011 22012KT BECMG 2016/2019 17007KT BECMG 2023/2102 18012KT TEMPO 2104/2106 21015G25KT=

    Metar: METAR EDLP 200720Z 18009KT CAVOK 19/12 Q1018=

  • Paris/Le Bourget (LFPB)

    Taf: TAF LFPB 200500Z 2006/2106 20005KT CAVOK PROB30 TEMPO 2006/2008 BKN006 BECMG 2102/2105 24015G30KT PROB40 TEMPO 2105/2106 4000 RA=

    Metar: METAR LFPB 200730Z AUTO 20004KT 170V230 CAVOK 18/14 Q1019 NOSIG=

  • Rotterdam (EHRD)

    Taf: TAF EHRD 200434Z 2006/2112 20008KT CAVOK PROB30 TEMPO 2006/2010 BKN014 BECMG 2007/2010 22015KT SCT025 BECMG 2015/2018 18006KT CAVOK BECMG 2021/2024 19012KT BECMG 2100/2103 20017G27KT BECMG 2103/2105 21022G33KT TEMPO 2105/2107 23028G43KT 6000 RA -SHRA SCT018TCU BKN030 BECMG 2106/2108 26023G36KT SCT025=

    Metar: METAR EHRD 200725Z AUTO 20011KT 160V230 9999 SCT019 BKN023 BKN031 18/15 Q1015 NOSIG=

  • Zürich/Kloten (LSZH)

    Taf: TAF LSZH 200525Z 2006/2112 VRB03KT 9999 MIFG NSC TX28/2014Z TN12/2006Z TN11/2105Z PROB40 TEMPO 2006/2007 3000 BCFG BECMG 2007/2009 CAVOK TEMPO 2011/2016 9999 FEW050 BECMG 2100/2103 6000 MIFG NSC PROB40 2103/2107 2500 BCFG BECMG 2107/2110 CAVOK=

    Metar: METAR LSZH 200720Z 00000KT CAVOK 17/14 Q1023 NOSIG=

  • Oostende/Intl (EBOS)

    Taf: TAF EBOS 200520Z 2006/2112 20010KT 9999 FEW024 PROB30 TEMPO 2010/2014 22015G28KT PROB30 TEMPO 2023/2102 20015G28KT PROB40 TEMPO 2102/2107 22023G40KT 3800 RA SHRA BKN014 BECMG 2105/2107 26024G40KT=

    Metar: METAR EBOS 200720Z 19012KT 9999 FEW018 17/14 Q1016 NOSIG=

  • Paris/Orly (LFPO)

    Taf: TAF LFPO 200500Z 2006/2112 23005KT CAVOK TEMPO 2006/2009 BKN008 PROB30 TEMPO 2007/2008 BKN006 BECMG 2100/2102 22012G22KT TEMPO 2105/2108 22020G32KT 3000 RA BKN010=

    Metar: METAR LFPO 200730Z 19005KT 160V220 CAVOK 17/14 Q1020 TEMPO BKN006=

  • Beauvais (LFOB)

    Taf: TAF AMD LFOB 200654Z 2006/2106 18004KT CAVOK TEMPO 2006/2009 BKN009 BECMG 2007/2009 18014KT BECMG 2021/2023 19020G30KT TEMPO 2104/2106 3000 RA OVC010=

    Metar: METAR LFOB 200730Z AUTO 20005KT 170V230 9999 BKN010 17/15 Q1019 BECMG NSC=

  • Münster/Intl (EDDG)

    Taf: TAF EDDG 200500Z 2006/2106 19005KT CAVOK BECMG 2008/2011 22012KT BECMG 2015/2018 16005KT BECMG 2102/2105 18010KT TEMPO 2104/2106 21015G25KT=

    Metar: METAR EDDG 200720Z 20008KT 170V230 CAVOK 19/12 Q1017 NOSIG=

  • Illesheim (ETIK)

    Taf: TAF ETIK 192128Z 1921/2103 VRB06KT 9999 FEW040 QNH3007INS BECMG 2012/2013 VRB06KT 9999 SCT060 QNH2998INS BECMG 2017/2018 18009KT 9999 BKN050 QNH2996INS BECMG 2020/2021 18010G15KT 9999 BKN050 QNH2992INS TX25/2015Z TN15/2005Z=

    Metar: METAR ETIK 200456Z AUTO 00000KT 9999 CLR 12/12 A3015 RMK AO2 SLP202 T01210115 PWINO $=

  • Duebendorf (LSMD)

    Taf: TAF LSMD 200500Z NIL=

    Metar: METAR LSMD 200720Z AUTO /////KT ////NDV // ////// ///// Q//// RMK MIS=

  • Villacoublay (LFPV)

    Taf: TAF LFPV 192000Z 1921/2021 19003KT CAVOK TEMPO 2006/2010 BKN004=

    Metar: METAR LFPV 200730Z AUTO 21006KT 170V240 9999 FEW006 16/15 Q1019 NOSIG=

  • Payerne (LSMP)

    Taf: TAF LSMP 200525Z 2006/2112 VRB03KT CAVOK BECMG 2012/2014 9999 FEW050 BECMG 2017/2019 CAVOK BECMG 2107/2109 25010KT 9999 FEW060=

    Metar: METAR LSMP 200720Z VRB02KT CAVOK 16/12 Q1023 RMK BLU=

  • Amsterdam/Schipol (EHAM)

    Taf: TAF EHAM 200433Z 2006/2112 20009KT CAVOK PROB30 TEMPO 2006/2010 BKN014 BECMG 2007/2010 22016KT SCT025 BECMG 2015/2018 18006KT CAVOK BECMG 2021/2024 19013KT BECMG 2100/2103 20018G28KT BECMG 2103/2105 21023G35KT TEMPO 2105/2107 23030G45KT 6000 RA -SHRA SCT018TCU BKN030 BECMG 2106/2108 26025G38KT SCT025=

    Metar: METAR EHAM 200725Z 20011KT 9999 FEW020 SCT032 18/15 Q1014 NOSIG=

  • Emmen (LSME)

    Taf: TAF LSME 200500Z NIL=

    Metar: METAR LSME 200720Z NIL=

  • Friedrichshafen (EDNY)

    Taf: TAF EDNY 200500Z 2006/2106 VRB02KT CAVOK TEMPO 2010/2016 23005KT=

    Metar: METAR EDNY 200720Z VRB02KT CAVOK 17/14 Q1022=

  • Alpnach (LSMA)

    Taf: TAF LSMA 200500Z NIL=

    Metar: METAR LSMA 200720Z NIL=

  • Meiringen (LSMM)

    Taf: TAF LSMM 200500Z NIL=

    Metar: METAR LSMM 200720Z 00000KT CAVOK 16/12 Q1024 RMK BLU=

  • Nürnberg (EDDN)

    Taf: TAF EDDN 200500Z 2006/2106 12005KT CAVOK BECMG 2009/2011 22007KT BECMG 2016/2018 15003KT=

    Metar: METAR EDDN 200720Z 14005KT CAVOK 20/14 Q1021 NOSIG=

  • Rouen (LFOP)

    Taf: TAF LFOP 200500Z 2006/2106 19013KT CAVOK PROB30 TEMPO 2006/2009 BKN013 BECMG 2021/2023 19020G30KT TEMPO 2103/2105 3000 RA OVC010 FM210500 27027G40KT 9999 BKN040=

    Metar: METAR LFOP 200730Z AUTO 20013KT CAVOK 17/15 Q1018 TEMPO BKN013=

  • Evreux (LFOE)

    Taf: TAF LFOE 192000Z 1921/2021 23005KT CAVOK TEMPO 2004/2008 5000 BR BKN010 BECMG 2009/2012 21010G20KT=

    Metar: METAR LFOE 200730Z AUTO 19010KT CAVOK 17/15 Q1019 NOSIG=

  • Erfurt/Bindersleben (EDDE)

    Taf: TAF EDDE 200500Z 2006/2106 21005KT CAVOK TEMPO 2009/2016 22010KT=

    Metar: METAR EDDE 200720Z 20006KT CAVOK 19/13 Q1020 NOSIG=